createdAt,value
2018-08-09T00:00:00.901Z,50.23
2018-08-09T00:02:30.621Z,63.87
2018-08-09T00:05:00.581Z,58.60
2018-08-09T00:07:30.620Z,57.33
2018-08-09T00:10:00.362Z,62.80
2018-08-09T00:12:30.175Z,62.25
2018-08-09T00:15:00.003Z,69.85
2018-08-09T00:17:29.921Z,65.35
2018-08-09T00:19:59.778Z,63.38
2018-08-09T00:25:04.721Z,57.60
2018-08-09T00:27:34.794Z,57.35
2018-08-09T00:30:04.881Z,58.20
2018-08-09T00:32:52.281Z,58.45
2018-08-09T00:35:22.282Z,49.53
2018-08-09T00:37:52.237Z,48.63
2018-08-09T00:40:22.115Z,44.95
2018-08-09T00:42:52.115Z,41.73
2018-08-09T00:45:22.015Z,41.18
2018-08-09T00:47:51.894Z,36.75
2018-08-09T00:50:21.874Z,42.53
2018-08-09T00:52:51.656Z,37.53
2018-08-09T00:55:21.474Z,35.60
2018-08-09T00:57:51.481Z,40.85
2018-08-09T01:00:21.321Z,34.30
2018-08-09T01:02:51.234Z,35.15
2018-08-09T01:05:21.242Z,32.38
2018-08-09T01:07:51.181Z,35.17
2018-08-09T01:10:20.944Z,41.48
2018-08-09T01:12:50.681Z,38.88
2018-08-09T01:15:20.655Z,42.75
2018-08-09T01:17:50.595Z,38.55
2018-08-09T01:20:20.594Z,41.37
2018-08-09T01:22:50.650Z,45.38
2018-08-09T01:25:20.454Z,49.45
2018-08-09T01:27:50.234Z,43.58
2018-08-09T01:30:20.554Z,41.15
2018-08-09T01:32:50.448Z,43.48
2018-08-09T01:35:20.421Z,50.92
2018-08-09T01:37:50.414Z,52.15
2018-08-09T01:40:20.116Z,53.90
2018-08-09T01:43:00.380Z,53.98
2018-08-09T01:45:30.313Z,66.70
2018-08-09T01:48:00.255Z,48.17
2018-08-09T01:50:30.113Z,76.37
2018-08-09T01:52:59.993Z,73.25
2018-08-09T01:55:29.673Z,67.78
2018-08-09T01:57:59.600Z,72.35
2018-08-09T02:00:29.320Z,97.92
2018-08-09T02:02:59.296Z,61.75
2018-08-09T02:05:29.217Z,70.28
2018-08-09T02:07:59.113Z,66.12
2018-08-09T02:10:29.300Z,79.95
2018-08-09T02:12:59.240Z,62.95
2018-08-09T02:15:29.959Z,58.55
2018-08-09T02:18:00.380Z,57.43
2018-08-09T02:20:30.325Z,56.53
2018-08-09T02:23:00.319Z,70.85
2018-08-09T02:25:30.185Z,84.47
2018-08-09T02:28:00.119Z,72.95
2018-08-09T02:30:29.880Z,73.97
2018-08-09T02:32:59.951Z,71.40
2018-08-09T02:35:29.759Z,87.33
2018-08-09T02:37:59.718Z,79.47
2018-08-09T02:40:29.518Z,84.20
2018-08-09T02:42:59.878Z,84.20
2018-08-09T02:45:29.632Z,68.65
2018-08-09T02:47:59.451Z,51.95
2018-08-09T02:50:29.159Z,82.25
2018-08-09T02:52:59.091Z,64.67
2018-08-09T02:55:29.109Z,77.92
2018-08-09T02:57:59.098Z,65.57
2018-08-09T03:00:28.953Z,77.17
2018-08-09T03:02:58.910Z,78.35
2018-08-09T03:05:28.690Z,92.62
2018-08-09T03:07:58.658Z,95.38
2018-08-09T03:10:28.370Z,103.58
2018-08-09T03:12:58.276Z,98.00
2018-08-09T03:15:28.051Z,98.47
2018-08-09T03:17:58.190Z,102.87
2018-08-09T03:20:28.089Z,90.97
2018-08-09T03:22:58.048Z,90.65
2018-08-09T03:25:27.749Z,86.70
2018-08-09T03:27:57.689Z,93.07
2018-08-09T03:30:27.491Z,80.40
2018-08-09T03:32:57.350Z,102.67
2018-08-09T03:35:27.083Z,94.70
2018-08-09T03:37:57.261Z,107.37
2018-08-09T03:40:28.187Z,94.62
2018-08-09T03:42:59.104Z,109.52
2018-08-09T03:45:29.067Z,103.13
2018-08-09T03:47:58.985Z,112.97
2018-08-09T03:50:28.898Z,118.20
2018-08-09T03:52:58.812Z,129.83
2018-08-09T03:55:28.680Z,103.07
2018-08-09T03:57:58.840Z,117.30
2018-08-09T04:00:28.611Z,136.13
2018-08-09T04:02:58.799Z,85.30
2018-08-09T04:05:29.681Z,103.60
2018-08-09T04:08:00.690Z,74.20
2018-08-09T04:10:30.766Z,84.00
2018-08-09T04:13:00.944Z,98.23
2018-08-09T04:15:30.913Z,109.70
2018-08-09T04:18:00.854Z,107.37
2018-08-09T04:20:31.218Z,106.00
2018-08-09T04:23:01.365Z,131.10
2018-08-09T04:25:31.293Z,124.77
2018-08-09T04:28:01.340Z,103.23
2018-08-09T04:30:31.072Z,106.07
2018-08-09T04:33:00.944Z,108.55
2018-08-09T04:35:30.910Z,124.83
2018-08-09T04:38:00.885Z,107.25
2018-08-09T04:40:31.067Z,99.62
2018-08-09T04:43:01.160Z,100.97
2018-08-09T04:45:30.924Z,118.85
2018-08-09T04:48:00.846Z,94.47
2018-08-09T04:50:30.771Z,98.30
2018-08-09T04:53:00.666Z,113.47
2018-08-09T04:55:30.400Z,104.85
2018-08-09T04:58:00.386Z,134.80
2018-08-09T05:00:30.119Z,80.67
2018-08-09T05:03:00.206Z,71.95
2018-08-09T05:05:29.995Z,72.47
2018-08-09T05:08:00.102Z,79.30
2018-08-09T05:10:29.952Z,73.83
2018-08-09T05:12:59.988Z,59.73
2018-08-09T05:15:29.819Z,94.55
2018-08-09T05:17:59.798Z,83.12
2018-08-09T05:20:29.483Z,193.05
2018-08-09T05:22:59.393Z,94.13
2018-08-09T05:25:29.363Z,77.62
2018-08-09T05:27:59.302Z,55.65
2018-08-09T05:30:29.286Z,47.17
2018-08-09T05:32:59.264Z,24.30
2018-08-09T05:35:29.005Z,18.90
2018-08-09T05:37:59.019Z,21.73
2018-08-09T05:40:28.899Z,17.95
2018-08-09T05:42:58.947Z,16.15
2018-08-09T05:45:28.833Z,14.43
2018-08-09T05:47:58.741Z,14.58
2018-08-09T05:50:28.676Z,14.60
2018-08-09T05:52:58.762Z,14.90
2018-08-09T05:55:28.460Z,15.38
2018-08-09T05:57:58.392Z,13.95
2018-08-09T06:00:28.361Z,14.85
2018-08-09T06:02:58.255Z,13.45
2018-08-09T06:05:28.361Z,13.40
2018-08-09T06:07:58.333Z,14.18
2018-08-09T06:10:28.294Z,13.75
2018-08-09T06:12:58.312Z,13.25
2018-08-09T06:15:28.341Z,12.78
2018-08-09T06:17:58.484Z,12.47
2018-08-09T06:20:28.646Z,13.03
2018-08-09T06:22:58.632Z,10.55
2018-08-09T06:25:28.700Z,12.35
2018-08-09T06:27:58.725Z,10.05
2018-08-09T06:30:28.827Z,10.18
2018-08-09T06:32:58.813Z,12.10
2018-08-09T06:35:29.578Z,10.43
2018-08-09T06:37:59.800Z,14.70
2018-08-09T06:40:29.939Z,11.70
2018-08-09T06:42:59.887Z,11.80
2018-08-09T06:45:29.962Z,12.28
2018-08-09T06:48:00.367Z,11.38
2018-08-09T06:50:30.219Z,12.85
2018-08-09T06:53:00.067Z,12.47
2018-08-09T06:55:30.403Z,12.65
2018-08-09T06:58:01.875Z,11.95
2018-08-09T07:00:31.870Z,11.80
2018-08-09T07:03:03.322Z,12.70
2018-08-09T07:05:33.208Z,15.78
2018-08-09T07:08:05.302Z,14.30
2018-08-09T07:10:35.061Z,11.80
2018-08-09T07:13:06.754Z,12.73
2018-08-09T07:15:36.994Z,12.47
2018-08-09T07:18:07.444Z,12.33
2018-08-09T07:20:37.746Z,11.28
2018-08-09T07:23:09.740Z,12.07
2018-08-09T07:25:39.471Z,11.78
2018-08-09T07:28:10.953Z,13.13
2018-08-09T07:30:40.893Z,12.13
2018-08-09T07:33:11.634Z,12.00
2018-08-09T07:35:41.434Z,12.53
2018-08-09T07:38:12.593Z,11.73
2018-08-09T07:40:42.312Z,12.23
2018-08-09T07:43:13.048Z,12.30
2018-08-09T07:45:42.983Z,12.65
2018-08-09T07:48:12.813Z,11.85
2018-08-09T07:50:42.894Z,12.18
2018-08-09T07:53:14.212Z,11.12
2018-08-09T07:55:44.030Z,10.55
2018-08-09T07:58:13.972Z,11.33
2018-08-09T08:00:43.872Z,20.85
2018-08-09T08:03:13.499Z,13.25
2018-08-09T08:05:43.473Z,11.88
2018-08-09T08:08:13.180Z,10.55
2018-08-09T08:10:42.992Z,10.45
2018-08-09T08:13:12.772Z,10.50
2018-08-09T08:15:42.580Z,11.20
2018-08-09T08:18:12.485Z,12.25
2018-08-09T08:20:42.527Z,11.60
2018-08-09T08:23:12.220Z,11.20
2018-08-09T08:25:42.017Z,11.88
2018-08-09T08:28:11.972Z,10.93
2018-08-09T08:30:41.852Z,45.80
2018-08-09T08:33:11.672Z,13.83
2018-08-09T08:35:41.963Z,10.78
2018-08-09T08:38:12.313Z,35.28
2018-08-09T08:40:42.259Z,12.13
2018-08-09T08:43:12.264Z,13.18
2018-08-09T08:45:42.278Z,12.18
2018-08-09T08:48:12.155Z,11.90
2018-08-09T08:50:42.081Z,12.95
2018-08-09T08:53:12.093Z,15.55
2018-08-09T08:55:41.924Z,66.87
2018-08-09T08:58:12.065Z,11.53
2018-08-09T09:00:42.231Z,11.10
2018-08-09T09:03:12.102Z,11.18
2018-08-09T09:05:42.118Z,11.12
2018-08-09T09:08:12.525Z,11.63
2018-08-09T09:10:42.924Z,11.03
2018-08-09T09:13:12.616Z,11.28
2018-08-09T09:15:42.598Z,12.37
2018-08-09T09:18:12.578Z,18.25
2018-08-09T09:20:42.459Z,12.07
2018-08-09T09:23:12.480Z,11.48
2018-08-09T09:25:42.472Z,12.53
2018-08-09T09:28:12.363Z,11.73
2018-08-09T09:30:42.329Z,11.50
2018-08-09T09:33:12.136Z,14.87
2018-08-09T09:35:42.080Z,12.43
2018-08-09T09:38:11.877Z,11.48
2018-08-09T09:40:42.275Z,11.20
2018-08-09T09:43:12.036Z,11.40
2018-08-09T09:45:42.765Z,12.55
2018-08-09T09:48:12.837Z,12.18
2018-08-09T09:50:42.663Z,18.12
2018-08-09T09:53:12.678Z,13.18
2018-08-09T09:55:43.237Z,15.32
2018-08-09T09:58:13.137Z,13.08
2018-08-09T10:00:47.885Z,12.10
2018-08-09T10:03:17.806Z,12.58
2018-08-09T10:05:47.716Z,14.45
2018-08-09T10:08:17.698Z,12.05
2018-08-09T10:10:47.547Z,12.93
2018-08-09T10:13:17.499Z,12.37
2018-08-09T10:15:47.305Z,13.68
2018-08-09T10:18:17.005Z,14.65
2018-08-09T10:20:46.756Z,13.50
2018-08-09T10:23:16.525Z,12.60
2018-08-09T10:25:46.317Z,13.48
2018-08-09T10:28:16.317Z,14.13
2018-08-09T10:30:46.218Z,12.85
2018-08-09T10:33:16.084Z,12.37
2018-08-09T10:35:46.837Z,13.18
2018-08-09T10:38:16.839Z,24.67
2018-08-09T10:40:46.788Z,12.55
2018-08-09T10:43:16.639Z,13.25
2018-08-09T10:45:46.480Z,13.10
2018-08-09T10:48:16.163Z,12.78
2018-08-09T10:50:46.150Z,13.68
2018-08-09T10:53:15.903Z,13.72
2018-08-09T10:55:46.046Z,12.58
2018-08-09T10:58:16.024Z,12.58
2018-08-09T11:00:46.246Z,13.78
2018-08-09T11:03:16.221Z,14.00
2018-08-09T11:05:46.322Z,12.70
2018-08-09T11:08:16.022Z,12.55
2018-08-09T11:10:46.119Z,13.08
2018-08-09T11:13:16.184Z,12.85
2018-08-09T11:15:46.040Z,13.13
2018-08-09T11:18:15.911Z,12.68
2018-08-09T11:20:45.843Z,12.80
2018-08-09T11:23:15.688Z,12.82
2018-08-09T11:25:45.696Z,12.93
2018-08-09T11:28:15.548Z,12.18
2018-08-09T11:30:45.889Z,13.22
2018-08-09T11:33:15.845Z,12.75
2018-08-09T11:35:45.669Z,11.43
2018-08-09T11:38:15.309Z,11.20
2018-08-09T11:40:45.152Z,12.30
2018-08-09T11:43:14.950Z,11.40
2018-08-09T11:45:44.970Z,11.90
2018-08-09T11:48:14.844Z,13.03
2018-08-09T11:50:45.217Z,12.82
2018-08-09T11:53:15.203Z,11.75
2018-08-09T11:55:45.324Z,11.22
2018-08-09T11:58:15.163Z,12.47
2018-08-09T12:00:45.095Z,12.37
2018-08-09T12:03:14.962Z,11.55
2018-08-09T12:05:44.753Z,12.63
2018-08-09T12:08:14.756Z,12.80
2018-08-09T12:10:44.575Z,12.50
2018-08-09T12:13:14.644Z,12.28
2018-08-09T12:15:44.482Z,13.35
2018-08-09T12:18:14.604Z,12.47
2018-08-09T12:20:44.456Z,11.10
2018-08-09T12:23:14.256Z,11.53
2018-08-09T12:25:44.075Z,10.40
2018-08-09T12:28:14.179Z,9.95
2018-08-09T12:30:44.064Z,10.38
2018-08-09T12:33:13.875Z,9.63
2018-08-09T12:35:43.779Z,9.73
2018-08-09T12:38:13.941Z,9.28
2018-08-09T12:40:44.000Z,8.38
2018-08-09T12:43:13.944Z,8.25
2018-08-09T12:45:43.907Z,7.83
2018-08-09T12:48:13.815Z,8.03
2018-08-09T12:50:43.911Z,8.80
2018-08-09T12:53:13.738Z,10.10
2018-08-09T12:55:43.588Z,9.75
2018-08-09T12:58:13.416Z,10.20
2018-08-09T13:00:43.461Z,8.88
2018-08-09T13:03:13.034Z,10.00
2018-08-09T13:05:42.882Z,8.88
2018-08-09T13:08:12.675Z,8.93
2018-08-09T13:10:42.324Z,8.70
2018-08-09T13:13:12.029Z,11.78
2018-08-09T13:15:42.162Z,8.85
2018-08-09T13:18:11.771Z,9.45
2018-08-09T13:20:41.323Z,9.00
2018-08-09T13:23:11.023Z,9.50
2018-08-09T13:25:40.501Z,9.93
2018-08-09T13:28:09.975Z,10.15
2018-08-09T13:30:39.576Z,10.40
2018-08-09T13:33:09.416Z,10.43
2018-08-09T13:35:38.971Z,10.13
2018-08-09T13:38:08.686Z,10.53
2018-08-09T13:40:38.183Z,9.10
2018-08-09T13:43:07.896Z,10.63
2018-08-09T13:45:37.617Z,10.48
2018-08-09T13:48:07.458Z,11.88
2018-08-09T13:50:37.117Z,10.65
2018-08-09T13:53:06.916Z,10.15
2018-08-09T13:55:38.061Z,11.45
2018-08-09T13:58:07.772Z,11.20
2018-08-09T14:00:37.197Z,11.33
2018-08-09T14:03:06.776Z,11.33
2018-08-09T14:05:46.641Z,11.73
2018-08-09T14:08:17.998Z,11.50
2018-08-09T14:10:47.608Z,11.75
2018-08-09T14:13:17.231Z,11.70
2018-08-09T14:15:47.917Z,11.30
2018-08-09T14:18:28.369Z,11.15
2018-08-09T14:21:15.499Z,10.72
2018-08-09T14:23:47.539Z,11.73
2018-08-09T14:26:29.882Z,11.05
2018-08-09T14:29:14.169Z,11.05
2018-08-09T14:31:44.122Z,10.75
2018-08-09T14:34:16.426Z,10.85
2018-08-09T14:36:56.908Z,9.43
2018-08-09T14:39:31.353Z,10.32
2018-08-09T14:42:01.380Z,10.30
2018-08-09T14:44:32.911Z,10.30
2018-08-09T14:47:10.542Z,10.23
2018-08-09T14:49:50.621Z,11.30
2018-08-09T14:52:22.988Z,11.57
2018-08-09T14:55:05.768Z,10.40
2018-08-09T14:57:37.956Z,10.28
2018-08-09T15:00:21.261Z,10.85
2018-08-09T15:03:04.044Z,9.40
2018-08-09T15:05:53.204Z,10.53
2018-08-09T15:08:44.046Z,10.95
2018-08-09T15:11:22.542Z,10.00
2018-08-09T15:13:53.980Z,10.05
2018-08-09T15:16:25.554Z,11.33
2018-08-09T15:18:58.186Z,11.15
2018-08-09T15:21:47.484Z,10.93
2018-08-09T15:24:18.048Z,10.30
2018-08-09T15:26:47.782Z,10.68
2018-08-09T15:29:18.326Z,11.60
2018-08-09T15:31:48.766Z,10.88
2018-08-09T15:34:19.207Z,11.50
2018-08-09T15:36:48.919Z,11.57
2018-08-09T15:39:18.911Z,11.97
2018-08-09T15:41:48.700Z,11.15
2018-08-09T15:44:18.297Z,12.03
2018-08-09T15:46:47.964Z,11.48
2018-08-09T15:49:17.957Z,11.63
2018-08-09T15:51:47.652Z,11.10
2018-08-09T15:54:17.727Z,11.55
2018-08-09T15:56:47.684Z,11.30
2018-08-09T15:59:17.837Z,12.40
2018-08-09T16:01:48.250Z,11.93
2018-08-09T16:04:17.765Z,12.03
2018-08-09T16:06:47.404Z,11.68
2018-08-09T16:09:18.932Z,13.35
2018-08-09T16:11:48.755Z,12.03
2018-08-09T16:14:18.620Z,11.85
2018-08-09T16:16:48.346Z,13.25
2018-08-09T16:19:19.311Z,11.97
2018-08-09T16:21:49.166Z,12.90
2018-08-09T16:24:19.430Z,11.80
2018-08-09T16:26:49.421Z,12.37
2018-08-09T16:29:19.069Z,12.75
2018-08-09T16:31:48.803Z,12.47
2018-08-09T16:34:18.612Z,11.55
2018-08-09T16:36:48.270Z,12.55
2018-08-09T16:39:18.814Z,12.53
2018-08-09T16:41:48.742Z,13.38
2018-08-09T16:44:18.780Z,12.85
2018-08-09T16:46:50.063Z,12.45
2018-08-09T16:49:20.051Z,12.78
2018-08-09T16:51:49.701Z,12.73
2018-08-09T16:54:19.301Z,13.72
2018-08-09T16:56:49.549Z,14.00
2018-08-09T16:59:19.241Z,14.13
2018-08-09T17:01:49.568Z,14.60
2018-08-09T17:04:19.201Z,14.45
2018-08-09T17:06:48.848Z,13.70
2018-08-09T17:09:18.321Z,14.13
2018-08-09T17:11:47.961Z,14.87
2018-08-09T17:14:17.621Z,15.03
2018-08-09T17:16:47.221Z,15.43
2018-08-09T17:19:17.301Z,15.35
2018-08-09T17:21:47.144Z,16.07
2018-08-09T17:24:16.920Z,17.32
2018-08-09T17:26:46.561Z,17.65
2018-08-09T17:29:16.202Z,17.12
2018-08-09T17:31:46.842Z,17.62
2018-08-09T17:34:16.740Z,17.65
2018-08-09T17:36:46.487Z,17.73
2018-08-09T17:39:16.319Z,19.82
2018-08-09T17:41:46.270Z,19.75
2018-08-09T17:44:16.664Z,20.77
2018-08-09T17:46:46.127Z,20.12
2018-08-09T17:49:15.994Z,19.65
2018-08-09T17:51:45.947Z,20.35
2018-08-09T17:54:15.845Z,21.62
2018-08-09T17:56:45.499Z,22.50
2018-08-09T17:59:15.388Z,21.23
2018-08-09T18:01:45.160Z,21.90
2018-08-09T18:04:15.121Z,22.48
2018-08-09T18:06:44.874Z,22.40
2018-08-09T18:09:15.127Z,22.75
2018-08-09T18:11:45.015Z,23.15
2018-08-09T18:14:15.967Z,22.55
2018-08-09T18:16:45.739Z,22.62
2018-08-09T18:19:16.228Z,25.02
2018-08-09T18:21:45.867Z,24.57
2018-08-09T18:24:16.743Z,24.25
2018-08-09T18:26:47.159Z,24.45
2018-08-09T18:29:17.859Z,25.45
2018-08-09T18:31:47.880Z,25.95
2018-08-09T18:34:18.579Z,25.85
2018-08-09T18:36:48.447Z,26.93
2018-08-09T18:39:19.240Z,28.15
2018-08-09T18:41:49.160Z,27.90
2018-08-09T18:44:19.256Z,27.42
2018-08-09T18:46:49.086Z,27.58
2018-08-09T18:49:18.860Z,26.82
2018-08-09T18:51:48.828Z,27.58
2018-08-09T18:54:18.367Z,29.05
2018-08-09T18:56:47.858Z,29.67
2018-08-09T18:59:17.350Z,28.75
2018-08-09T19:01:46.943Z,29.30
2018-08-09T19:04:16.426Z,28.38
2018-08-09T19:06:45.946Z,29.50
2018-08-09T19:09:15.709Z,31.25
2018-08-09T19:11:47.261Z,29.40
2018-08-09T19:14:16.787Z,30.40
2018-08-09T19:16:46.415Z,30.52
2018-08-09T19:19:15.920Z,30.05
2018-08-09T19:21:45.407Z,31.33
2018-08-09T19:24:16.713Z,32.98
2018-08-09T19:26:47.216Z,32.53
2018-08-09T19:29:17.271Z,32.17
2018-08-09T19:31:48.131Z,32.90
2018-08-09T19:34:18.176Z,32.75
2018-08-09T19:36:48.326Z,34.20
2018-08-09T19:39:17.727Z,36.42
2018-08-09T19:41:47.266Z,35.55
2018-08-09T19:44:16.793Z,33.55
2018-08-09T19:46:46.393Z,32.08
2018-08-09T19:49:15.933Z,32.13
2018-08-09T19:51:45.531Z,32.90
2018-08-09T19:54:15.074Z,33.40
2018-08-09T19:56:44.547Z,33.53
2018-08-09T19:59:14.167Z,34.63
2018-08-09T20:01:43.727Z,35.17
2018-08-09T20:04:13.314Z,35.48
2018-08-09T20:06:42.992Z,33.80
2018-08-09T20:09:12.585Z,34.90
2018-08-09T20:11:42.134Z,34.70
2018-08-09T20:14:11.574Z,32.85
2018-08-09T20:16:41.154Z,35.95
2018-08-09T20:19:10.586Z,36.48
2018-08-09T20:21:40.215Z,36.65
2018-08-09T20:24:10.030Z,37.67
2018-08-09T20:26:39.553Z,39.55
2018-08-09T20:29:09.118Z,41.28
2018-08-09T20:31:38.635Z,39.53
2018-08-09T20:34:08.239Z,40.52
2018-08-09T20:36:37.847Z,41.40
2018-08-09T20:39:12.632Z,40.73
2018-08-09T20:41:42.275Z,39.40
2018-08-09T20:44:12.516Z,39.90
2018-08-09T20:46:42.255Z,38.15
2018-08-09T20:49:11.694Z,38.40
2018-08-09T20:51:41.161Z,36.70
2018-08-09T20:54:10.898Z,37.95
2018-08-09T20:56:40.408Z,38.02
2018-08-09T20:59:10.100Z,35.58
2018-08-09T21:01:39.741Z,37.10
2018-08-09T21:04:10.304Z,37.63
2018-08-09T21:06:39.913Z,37.85
2018-08-09T21:09:11.701Z,39.78
2018-08-09T21:11:41.731Z,39.48
2018-08-09T21:14:11.194Z,42.15
2018-08-09T21:16:40.772Z,40.80
2018-08-09T21:19:10.291Z,43.98
2018-08-09T21:21:40.076Z,43.48
2018-08-09T21:24:09.609Z,44.93
2018-08-09T21:26:39.228Z,43.17
2018-08-09T21:29:08.853Z,43.45
2018-08-09T21:31:38.382Z,42.88
2018-08-09T21:34:07.895Z,44.13
2018-08-09T21:36:37.406Z,45.60
2018-08-09T21:39:10.914Z,44.93
2018-08-09T21:41:40.850Z,44.75
2018-08-09T21:44:10.296Z,46.85
2018-08-09T21:46:40.033Z,48.60
2018-08-09T21:49:09.452Z,49.00
2018-08-09T21:51:39.129Z,51.50
2018-08-09T21:54:08.677Z,53.15
2018-08-09T21:56:38.426Z,51.75
2018-08-09T21:59:07.872Z,47.73
2018-08-09T22:01:37.488Z,48.68
2018-08-09T22:04:07.028Z,50.88
2018-08-09T22:06:41.668Z,53.38
2018-08-09T22:11:17.947Z,49.98
2018-08-09T22:13:52.756Z,52.13
2018-08-09T22:16:27.276Z,55.63
2018-08-09T22:19:01.815Z,48.70
2018-08-09T22:21:36.412Z,47.75
2018-08-09T22:24:06.272Z,45.55
2018-08-09T22:26:36.181Z,48.38
2018-08-09T22:29:05.954Z,47.50
2018-08-09T22:31:35.634Z,46.15
2018-08-09T22:34:05.083Z,45.52
2018-08-09T22:36:34.656Z,45.85
2018-08-09T22:39:04.976Z,51.08
2018-08-09T22:41:34.419Z,48.17
2018-08-09T22:44:04.512Z,48.17
2018-08-09T22:46:34.109Z,51.37
2018-08-09T22:49:04.062Z,48.65
2018-08-09T22:51:33.670Z,51.25
2018-08-09T22:54:03.201Z,49.40
2018-08-09T22:56:32.768Z,49.63
2018-08-09T22:59:02.216Z,48.28
2018-08-09T23:01:31.788Z,48.65
2018-08-09T23:04:01.199Z,51.00
2018-08-09T23:06:31.796Z,50.75
2018-08-09T23:09:01.216Z,50.35
2018-08-09T23:11:30.756Z,51.70
2018-08-09T23:14:00.220Z,52.50
2018-08-09T23:16:29.799Z,51.58
2018-08-09T23:18:59.240Z,51.20
2018-08-09T23:21:28.768Z,47.98
2018-08-09T23:23:58.183Z,52.53
2018-08-09T23:26:27.874Z,50.55
2018-08-09T23:28:57.414Z,51.37
2018-08-09T23:31:27.043Z,51.98
2018-08-09T23:33:56.620Z,55.15
2018-08-09T23:36:26.198Z,55.60
2018-08-09T23:38:55.711Z,57.50
2018-08-09T23:41:25.232Z,58.28
2018-08-09T23:43:54.736Z,57.62
2018-08-09T23:46:24.349Z,59.80
2018-08-09T23:48:53.739Z,62.33
2018-08-09T23:51:23.280Z,60.48
2018-08-09T23:53:52.841Z,63.85
2018-08-09T23:56:22.471Z,70.42
2018-08-09T23:58:51.863Z,69.80
